Time;durP1;ratioP1;P1;durP2;ratioP2;P2;SDS_P1;SDS_P2;PMS_P1;PMS_P2;Temp;Humidity;BMP_temperature;BMP_pressure;BME280_temperature;BME280_humidity;BME280_pressure;Samples;Min_cycle;Max_cycle;Signal;HPM_P1;HPM_P2
2023/10/23 00:00:04;;;;;;;0.00;0.00;;;;;;;8.16;98.02;99676.44;5102492;28;20030;-73
2023/10/23 00:02:30;;;;;;;0.00;0.00;;;;;;;8.15;98.24;99671.25;5101739;28;20077;-73
2023/10/23 00:04:55;;;;;;;0.00;0.00;;;;;;;8.08;97.81;99674.22;5097419;28;20024;-76
2023/10/23 00:07:21;;;;;;;0.00;0.00;;;;;;;8.10;98.22;99685.66;5073497;28;20043;-73
2023/10/23 00:09:46;;;;;;;0.00;0.00;;;;;;;8.09;98.21;99670.41;5083367;28;20118;-74
2023/10/23 00:12:12;;;;;;;0.00;0.00;;;;;;;8.08;97.82;99663.34;5103797;28;20031;-74
2023/10/23 00:14:37;;;;;;;0.00;0.00;;;;;;;8.09;98.22;99664.13;5079024;28;20480;-74
2023/10/23 00:17:03;;;;;;;0.00;0.00;;;;;;;8.08;98.40;99674.22;5084778;28;20032;-73
2023/10/23 00:19:28;;;;;;;0.00;0.00;;;;;;;8.07;98.33;99664.41;5085876;28;20059;-70
2023/10/23 00:21:54;;;;;;;0.00;0.00;;;;;;;8.05;98.27;99652.97;5092020;28;20370;-70
2023/10/23 00:24:19;;;;;;;0.00;0.00;;;;;;;8.15;98.36;99658.44;5096668;28;20746;-71
2023/10/23 00:26:45;;;;;;;0.00;0.00;;;;;;;8.27;98.07;99652.75;5090386;28;20031;-70
2023/10/23 00:29:10;;;;;;;0.00;0.00;;;;;;;8.46;97.86;99655.81;5069978;28;20019;-71
2023/10/23 00:31:35;;;;;;;0.00;0.00;;;;;;;8.52;97.09;99646.53;5077723;28;20035;-71
2023/10/23 00:34:01;;;;;;;0.00;0.00;;;;;;;8.54;96.96;99649.00;5047115;28;20046;-71
2023/10/23 00:36:26;;;;;;;0.00;0.00;;;;;;;8.51;97.08;99649.53;5101667;28;20517;-72
2023/10/23 00:38:52;;;;;;;0.00;0.00;;;;;;;8.44;97.21;99649.81;5079184;28;20389;-71
2023/10/23 00:41:17;;;;;;;0.00;0.00;;;;;;;8.40;97.38;99648.69;5096896;28;20040;-72
2023/10/23 00:43:43;;;;;;;0.00;0.00;;;;;;;8.33;98.09;99653.59;5068777;28;20086;-71
2023/10/23 00:46:15;;;;;;;0.00;0.00;;;;;;;8.25;98.13;99651.38;5081370;28;20138;-71
2023/10/23 00:48:42;;;;;;;0.00;0.00;;;;;;;8.17;98.11;99645.38;5083288;28;20020;-72
2023/10/23 00:51:11;;;;;;;0.00;0.00;;;;;;;8.14;98.47;99645.91;5089640;28;20032;-71
2023/10/23 00:53:38;;;;;;;0.00;0.00;;;;;;;8.04;99.08;99624.09;5094857;28;20119;-72
2023/10/23 00:56:06;;;;;;;0.00;0.00;;;;;;;8.11;98.60;99640.19;5091669;28;20050;-72
2023/10/23 00:58:33;;;;;;;0.00;0.00;;;;;;;8.10;99.18;99642.09;5088169;28;20039;-71
2023/10/23 01:01:01;;;;;;;0.00;0.00;;;;;;;8.04;99.35;99629.56;5090058;28;20027;-72
2023/10/23 01:03:26;;;;;;;0.00;0.00;;;;;;;7.99;99.10;99627.63;5102364;28;20031;-73
2023/10/23 01:05:52;;;;;;;0.00;0.00;;;;;;;7.98;99.26;99634.16;5094470;28;20028;-72
2023/10/23 01:08:18;;;;;;;0.00;0.00;;;;;;;7.88;99.18;99617.00;5082424;28;20039;-71
2023/10/23 01:10:45;;;;;;;0.00;0.00;;;;;;;7.92;99.30;99620.81;5101972;28;20330;-72
2023/10/23 01:13:14;;;;;;;0.00;0.00;;;;;;;7.93;99.70;99617.00;5094567;28;20034;-74
2023/10/23 01:15:40;;;;;;;0.00;0.00;;;;;;;7.97;99.76;99627.09;5104762;28;20026;-72
2023/10/23 01:18:06;;;;;;;0.00;0.00;;;;;;;7.94;99.79;99608.56;5095521;28;20035;-72
2023/10/23 01:20:31;;;;;;;0.00;0.00;;;;;;;7.92;99.66;99605.28;5104814;28;20044;-71
2023/10/23 01:23:01;;;;;;;0.00;0.00;;;;;;;7.99;99.89;99610.50;5083834;28;20039;-71
2023/10/23 01:25:27;;;;;;;0.00;0.00;;;;;;;7.97;99.92;99599.03;5103673;28;20111;-76
2023/10/23 01:27:53;;;;;;;0.00;0.00;;;;;;;8.00;100.00;99598.50;5100789;28;20487;-75
2023/10/23 01:30:20;;;;;;;0.00;0.00;;;;;;;8.01;99.88;99597.41;5101172;28;20058;-75
2023/10/23 01:32:45;;;;;;;0.00;0.00;;;;;;;8.05;100.00;99603.97;5095892;28;20024;-76
2023/10/23 01:35:11;;;;;;;0.00;0.00;;;;;;;8.01;99.44;99600.13;5106782;28;20072;-75
2023/10/23 01:37:41;;;;;;;0.00;0.00;;;;;;;7.99;99.69;99596.88;5080326;28;20031;-77
2023/10/23 01:40:08;;;;;;;0.00;0.00;;;;;;;7.93;99.95;99573.44;5089651;28;20213;-75
2023/10/23 01:42:33;;;;;;;0.00;0.00;;;;;;;8.07;99.69;99598.25;5095446;28;20771;-75
2023/10/23 01:44:59;;;;;;;0.00;0.00;;;;;;;8.03;100.00;99584.34;5099853;28;20440;-73
2023/10/23 01:47:26;;;;;;;0.00;0.00;;;;;;;8.06;99.68;99585.72;5099873;28;20240;-73
2023/10/23 01:49:51;;;;;;;0.00;0.00;;;;;;;8.10;99.80;99590.34;5105433;28;20016;-74
2023/10/23 01:52:17;;;;;;;0.00;0.00;;;;;;;8.12;100.00;99593.63;5085429;28;20042;-74
2023/10/23 01:54:43;;;;;;;0.03;0.03;;;;;;;8.11;100.00;99583.81;5096777;28;21411;-74
2023/10/23 01:57:14;;;;;;;0.10;0.10;;;;;;;8.08;100.00;99568.03;5084203;28;20034;-76
2023/10/23 01:59:40;;;;;;;0.00;0.00;;;;;;;8.15;100.00;99582.19;5092313;28;20405;-74
2023/10/23 02:02:05;;;;;;;0.00;0.00;;;;;;;8.19;100.00;99587.91;5105753;28;20020;-74
2023/10/23 02:04:34;;;;;;;0.00;0.00;;;;;;;8.16;99.79;99570.22;5099064;28;20036;-74
2023/10/23 02:07:00;;;;;;;0.00;0.00;;;;;;;8.44;99.62;99594.47;5095896;28;20030;-74
2023/10/23 02:09:26;;;;;;;0.00;0.00;;;;;;;8.63;98.87;99594.75;5101542;28;20031;-74
2023/10/23 02:11:51;;;;;;;0.00;0.00;;;;;;;8.82;98.10;99589.56;5104435;28;20024;-74
2023/10/23 02:14:17;;;;;;;0.00;0.00;;;;;;;8.99;97.48;99590.09;5106915;28;20473;-74
2023/10/23 02:16:42;;;;;;;0.00;0.00;;;;;;;9.10;97.21;99590.91;5082319;28;20133;-74
2023/10/23 02:19:10;;;;;;;0.00;0.00;;;;;;;9.15;96.97;99582.69;5096271;28;20152;-75
2023/10/23 02:21:36;;;;;;;0.00;0.00;;;;;;;9.16;96.73;99578.06;5095905;28;20039;-73
2023/10/23 02:24:01;;;;;;;0.00;0.00;;;;;;;9.25;96.86;99581.84;5070493;28;20139;-75
2023/10/23 02:26:29;;;;;;;0.00;0.00;;;;;;;9.34;96.78;99576.63;5102830;28;20027;-75
2023/10/23 02:28:54;;;;;;;0.00;0.00;;;;;;;9.39;96.60;99571.19;5094929;28;20030;-74
2023/10/23 02:31:20;;;;;;;0.00;0.00;;;;;;;9.51;96.00;99579.84;5099930;28;20036;-73
2023/10/23 02:33:46;;;;;;;0.00;0.00;;;;;;;9.56;95.99;99579.84;5095728;28;20413;-73
2023/10/23 02:36:11;;;;;;;0.00;0.00;;;;;;;9.56;96.10;99582.56;5096375;28;20032;-75
2023/10/23 02:38:37;;;;;;;0.00;0.00;;;;;;;9.61;96.03;99579.78;5095262;28;20031;-73
2023/10/23 02:41:02;;;;;;;0.00;0.00;;;;;;;9.66;96.00;99569.94;5081187;28;20036;-73
2023/10/23 02:43:28;;;;;;;0.00;0.00;;;;;;;9.65;95.92;99571.03;5105995;28;20030;-74
2023/10/23 02:45:53;;;;;;;0.00;0.00;;;;;;;9.72;96.03;99568.81;5096053;28;20564;-74
2023/10/23 02:48:19;;;;;;;0.00;0.00;;;;;;;9.74;95.98;99572.09;5102889;28;20516;-73
2023/10/23 02:50:54;;;;;;;0.00;0.00;;;;;;;9.77;96.00;99572.34;5095741;28;20477;-72
2023/10/23 02:53:20;;;;;;;0.00;0.00;;;;;;;9.80;95.49;99576.44;5104682;28;20040;-75
2023/10/23 02:55:46;;;;;;;0.00;0.00;;;;;;;9.80;95.86;99570.97;5093589;28;20621;-74
2023/10/23 02:58:14;;;;;;;0.10;0.10;;;;;;;9.86;95.23;99575.31;5106269;28;20152;-74
2023/10/23 03:00:41;;;;;;;0.00;0.00;;;;;;;9.88;95.32;99580.47;5097998;28;20032;-73
2023/10/23 03:03:06;;;;;;;0.00;0.00;;;;;;;9.96;95.87;99580.69;5102581;28;20022;-73
2023/10/23 03:05:32;;;;;;;0.00;0.00;;;;;;;10.00;95.68;99580.94;5103043;28;20487;-74
2023/10/23 03:07:57;;;;;;;0.00;0.00;;;;;;;9.99;95.63;99575.75;5095735;28;20046;-74
2023/10/23 03:10:23;;;;;;;0.00;0.00;;;;;;;10.02;95.36;99586.16;5087429;28;20028;-72
2023/10/23 03:12:48;;;;;;;0.00;0.00;;;;;;;9.98;95.19;99577.69;5095707;28;20146;-73
2023/10/23 03:15:14;;;;;;;0.00;0.00;;;;;;;10.01;95.36;99566.19;5099432;28;20035;-73
2023/10/23 03:17:39;;;;;;;0.00;0.00;;;;;;;9.99;95.52;99556.63;5082364;28;20031;-74
2023/10/23 03:20:06;;;;;;;0.00;0.00;;;;;;;9.90;95.68;99554.53;5100392;28;20406;-73
2023/10/23 03:22:32;;;;;;;0.00;0.00;;;;;;;9.75;95.97;99551.88;5102596;28;20464;-73
2023/10/23 03:24:59;;;;;;;0.00;0.00;;;;;;;9.67;96.84;99555.22;5082520;28;20059;-73
2023/10/23 03:27:24;;;;;;;0.00;0.00;;;;;;;9.54;97.03;99557.44;5104533;28;20050;-74
2023/10/23 03:29:49;;;;;;;0.00;0.00;;;;;;;9.39;97.49;99543.88;5082421;28;20118;-74
2023/10/23 03:32:15;;;;;;;0.00;0.00;;;;;;;9.26;97.93;99539.84;5086881;28;20028;-74
2023/10/23 03:34:40;;;;;;;0.00;0.00;;;;;;;9.24;98.24;99536.56;5085181;28;20127;-74
2023/10/23 03:37:06;;;;;;;0.00;0.00;;;;;;;9.17;98.63;99531.41;5085039;28;20032;-73
2023/10/23 03:39:31;;;;;;;0.00;0.00;;;;;;;9.17;98.57;99525.97;5084920;28;20431;-74
2023/10/23 03:41:56;;;;;;;0.10;0.10;;;;;;;9.15;98.85;99533.59;5102593;28;20037;-75
2023/10/23 03:44:22;;;;;;;0.00;0.00;;;;;;;9.11;99.30;99527.06;5084546;28;20104;-75
2023/10/23 03:46:49;;;;;;;0.00;0.00;;;;;;;9.18;98.55;99522.13;5097244;28;20023;-75
2023/10/23 03:49:15;;;;;;;0.00;0.00;;;;;;;9.23;98.97;99516.66;5099043;28;20372;-74
2023/10/23 03:51:43;;;;;;;0.00;0.00;;;;;;;9.25;98.94;99514.44;5082015;28;20114;-75
2023/10/23 03:54:08;;;;;;;0.00;0.00;;;;;;;9.42;98.47;99510.56;5071629;28;20046;-75
2023/10/23 03:56:33;;;;;;;0.00;0.00;;;;;;;9.49;98.52;99510.25;5087607;28;20769;-75
2023/10/23 03:59:00;;;;;;;0.10;0.10;;;;;;;9.57;98.31;99513.22;5093804;28;20023;-75
2023/10/23 04:01:29;;;;;;;0.00;0.00;;;;;;;9.68;97.50;99515.88;5104814;28;20481;-75
2023/10/23 04:03:55;;;;;;;0.00;0.00;;;;;;;9.73;97.89;99521.31;5097780;28;20538;-75
2023/10/23 04:06:21;;;;;;;0.00;0.00;;;;;;;9.70;98.11;99513.69;5101068;28;20024;-75
2023/10/23 04:08:46;;;;;;;0.00;0.00;;;;;;;9.64;97.77;99515.63;5098831;28;20041;-74
2023/10/23 04:11:15;;;;;;;0.00;0.00;;;;;;;9.66;98.34;99527.09;5094831;28;20461;-74
2023/10/23 04:13:40;;;;;;;0.00;0.00;;;;;;;9.57;98.80;99529.59;5100229;28;20060;-74
2023/10/23 04:16:06;;;;;;;0.00;0.00;;;;;;;9.50;98.88;99529.06;5105698;27;20445;-74
2023/10/23 04:18:31;;;;;;;0.00;0.00;;;;;;;9.41;99.28;99525.31;5105379;28;20051;-74
2023/10/23 04:21:08;;;;;;;0.00;0.00;;;;;;;9.39;99.58;99532.97;5096311;28;20695;-74
2023/10/23 04:23:38;;;;;;;0.00;0.00;;;;;;;9.32;99.96;99516.09;5097946;28;20056;-74
2023/10/23 04:26:04;;;;;;;0.00;0.00;;;;;;;9.43;100.00;99521.22;5096215;28;21312;-75
2023/10/23 04:28:36;;;;;;;0.00;0.00;;;;;;;9.45;100.00;99512.75;5087970;28;20032;-75
2023/10/23 04:31:03;;;;;;;0.00;0.00;;;;;;;9.55;100.00;99509.13;5085386;28;20024;-74
2023/10/23 04:33:28;;;;;;;0.00;0.00;;;;;;;9.69;100.00;99517.53;5095300;28;20039;-73
2023/10/23 04:35:55;;;;;;;0.00;0.00;;;;;;;9.78;98.99;99519.38;5097635;28;20024;-74
2023/10/23 04:38:21;;;;;;;0.00;0.00;;;;;;;9.87;99.20;99516.88;5092778;28;20152;-74
2023/10/23 04:40:48;;;;;;;0.00;0.00;;;;;;;9.93;99.37;99515.72;5105871;28;20067;-74
2023/10/23 04:43:13;;;;;;;0.00;0.00;;;;;;;10.02;99.25;99512.41;5100958;28;20040;-74
2023/10/23 04:45:39;;;;;;;0.00;0.00;;;;;;;10.04;99.08;99502.00;5081255;28;20054;-74
2023/10/23 04:48:06;;;;;;;0.00;0.00;;;;;;;10.12;98.84;99509.59;5082514;28;20028;-74
2023/10/23 04:50:32;;;;;;;0.00;0.00;;;;;;;10.15;98.74;99522.66;5102750;28;20095;-74
2023/10/23 04:52:59;;;;;;;0.00;0.00;;;;;;;10.17;98.45;99519.66;5106347;28;20027;-75
2023/10/23 04:55:25;;;;;;;0.00;0.00;;;;;;;10.21;99.00;99512.53;5079087;28;20024;-73
2023/10/23 04:57:50;;;;;;;0.00;0.00;;;;;;;10.23;98.17;99513.84;5100871;28;20478;-73
2023/10/23 05:00:17;;;;;;;0.00;0.00;;;;;;;10.24;98.48;99509.22;5101157;28;20034;-74
2023/10/23 05:02:42;;;;;;;0.00;0.00;;;;;;;10.26;98.69;99513.28;5090176;28;20051;-75
2023/10/23 05:05:07;;;;;;;0.00;0.00;;;;;;;10.25;98.50;99508.09;5083852;28;20082;-74
2023/10/23 05:07:33;;;;;;;0.00;0.00;;;;;;;10.11;98.70;99483.34;5086698;28;20024;-75
2023/10/23 05:09:58;;;;;;;0.00;0.00;;;;;;;10.25;98.37;99511.66;5108947;28;20023;-74
2023/10/23 05:12:24;;;;;;;0.10;0.10;;;;;;;10.25;98.57;99505.34;5103756;28;20032;-75
2023/10/23 05:14:49;;;;;;;0.00;0.00;;;;;;;10.25;98.70;99508.94;5090523;28;20036;-76
2023/10/23 05:17:15;;;;;;;0.00;0.00;;;;;;;10.18;99.08;99500.25;5102522;28;20026;-75
2023/10/23 05:19:41;;;;;;;0.00;0.00;;;;;;;10.27;98.51;99506.72;5088881;28;20044;-75
2023/10/23 05:22:07;;;;;;;0.00;0.00;;;;;;;10.27;98.52;99498.50;5104181;28;20081;-74
2023/10/23 05:24:32;;;;;;;0.00;0.00;;;;;;;10.32;99.06;99500.38;5104512;28;20054;-74
2023/10/23 05:26:59;;;;;;;0.00;0.00;;;;;;;10.34;99.14;99503.69;5089611;28;20366;-74
2023/10/23 05:29:24;;;;;;;0.00;0.00;;;;;;;10.34;99.28;99505.59;5102818;28;20526;-74
2023/10/23 05:31:50;;;;;;;0.00;0.00;;;;;;;10.39;98.66;99505.56;5108560;28;20039;-75
2023/10/23 05:34:16;;;;;;;0.00;0.00;;;;;;;10.30;98.76;99497.94;5098450;28;20077;-74
2023/10/23 05:36:43;;;;;;;0.00;0.00;;;;;;;10.31;98.72;99496.84;5105770;28;20520;-74
2023/10/23 05:39:12;;;;;;;0.00;0.00;;;;;;;10.28;98.88;99493.88;5083927;28;20024;-75
2023/10/23 05:41:37;;;;;;;0.00;0.00;;;;;;;10.31;98.87;99487.84;5103832;27;20462;-74
2023/10/23 05:44:07;;;;;;;0.00;0.00;;;;;;;10.38;99.37;99493.81;5089771;28;20028;-75
2023/10/23 05:46:33;;;;;;;0.00;0.00;;;;;;;10.46;99.21;99506.03;5102582;28;20062;-74
2023/10/23 05:48:59;;;;;;;0.00;0.00;;;;;;;10.38;99.18;99490.25;5105540;28;20110;-74
2023/10/23 05:51:25;;;;;;;0.00;0.00;;;;;;;10.47;99.64;99496.75;5067716;28;20037;-74
2023/10/23 05:53:50;;;;;;;0.00;0.00;;;;;;;10.44;99.25;99486.38;5070564;28;20040;-75
2023/10/23 05:56:15;;;;;;;0.00;0.00;;;;;;;10.53;99.90;99492.84;5103763;28;20077;-75
2023/10/23 05:58:41;;;;;;;0.00;0.00;;;;;;;10.57;99.29;99480.25;5096592;28;20526;-74
2023/10/23 06:01:09;;;;;;;0.00;0.00;;;;;;;10.59;99.95;99480.75;5102120;28;20035;-74
2023/10/23 06:03:35;;;;;;;0.00;0.00;;;;;;;10.66;99.97;99472.22;5088433;28;20061;-74
2023/10/23 06:06:01;;;;;;;0.00;0.00;;;;;;;10.69;99.22;99479.00;5099332;28;20036;-74
2023/10/23 06:08:27;;;;;;;0.00;0.00;;;;;;;10.63;99.45;99473.59;5098990;28;20027;-75
2023/10/23 06:10:53;;;;;;;0.00;0.00;;;;;;;10.68;99.86;99472.72;5104732;28;20039;-75
2023/10/23 06:13:20;;;;;;;0.00;0.00;;;;;;;10.72;100.00;99481.16;5091428;28;20088;-72
2023/10/23 06:15:46;;;;;;;0.00;0.00;;;;;;;10.65;100.00;99470.59;5099084;28;20048;-74
2023/10/23 06:18:12;;;;;;;0.00;0.00;;;;;;;10.72;100.00;99482.00;5089190;28;20066;-74
2023/10/23 06:20:37;;;;;;;0.00;0.00;;;;;;;10.69;100.00;99476.28;5086164;28;20078;-71
2023/10/23 06:23:03;;;;;;;0.00;0.00;;;;;;;10.68;100.00;99485.59;5102507;28;20031;-74
2023/10/23 06:26:08;;;;;;;0.00;0.00;;;;;;;10.56;100.00;99470.41;5095887;28;20042;-71
2023/10/23 06:28:48;;;;;;;0.00;0.00;;;;;;;10.48;100.00;99454.63;5098406;28;20062;-72
2023/10/23 06:31:17;;;;;;;0.00;0.00;;;;;;;10.49;100.00;99467.19;5092173;28;20043;-72
2023/10/23 06:33:51;;;;;;;0.08;0.08;;;;;;;10.52;100.00;99477.53;5090942;28;20028;-72
2023/10/23 06:36:24;;;;;;;0.00;0.00;;;;;;;10.44;100.00;99459.03;5076240;28;20154;-72
2023/10/23 06:38:56;;;;;;;0.00;0.00;;;;;;;10.53;100.00;99473.72;5079944;28;20032;-71
2023/10/23 06:41:21;;;;;;;0.00;0.00;;;;;;;10.61;100.00;99477.72;5088320;28;20042;-72
2023/10/23 06:43:47;;;;;;;0.00;0.00;;;;;;;10.54;100.00;99469.88;5086176;28;20036;-71
2023/10/23 06:46:27;;;;;;;0.00;0.00;;;;;;;10.61;100.00;99470.34;5085169;28;20465;-73
2023/10/23 06:48:54;;;;;;;0.00;0.00;;;;;;;10.63;100.00;99478.25;5094709;28;20026;-74
2023/10/23 06:51:33;;;;;;;0.00;0.00;;;;;;;10.51;100.00;99459.50;5061467;28;20043;-74
2023/10/23 06:54:18;;;;;;;;;;;;;;;;;;;;;
2023/10/23 06:56:47;;;;;;;0.00;0.00;;;;;;;10.42;100.00;99458.50;5085053;28;20046;-74
2023/10/23 06:59:15;;;;;;;0.00;0.00;;;;;;;10.51;100.00;99481.38;5096224;28;20122;-74
2023/10/23 07:01:45;;;;;;;0.00;0.00;;;;;;;10.40;100.00;99452.53;5090040;28;20070;-73
2023/10/23 07:04:16;;;;;;;0.00;0.00;;;;;;;10.52;100.00;99460.34;5084738;28;20032;-75
2023/10/23 07:07:12;;;;;;;0.00;0.00;;;;;;;10.72;100.00;99494.84;5093156;28;20035;-71
2023/10/23 07:09:52;;;;;;;;;;;;;;;;;;;;;
2023/10/23 07:12:20;;;;;;;0.00;0.00;;;;;;;10.75;100.00;99475.13;5094658;28;20035;-73
2023/10/23 07:14:53;;;;;;;0.00;0.00;;;;;;;10.93;100.00;99481.75;5098625;28;20024;-73
2023/10/23 07:17:32;;;;;;;0.00;0.00;;;;;;;11.05;100.00;99478.63;5081399;28;20030;-74
2023/10/23 07:20:18;;;;;;;0.00;0.00;;;;;;;11.21;100.00;99471.84;5093349;28;20039;-72
2023/10/23 07:22:50;;;;;;;0.00;0.00;;;;;;;11.26;100.00;99462.75;5078555;28;20055;-73
2023/10/23 07:25:32;;;;;;;0.00;0.00;;;;;;;11.37;100.00;99464.22;5091055;28;20110;-73
2023/10/23 07:27:58;;;;;;;0.00;0.00;;;;;;;11.52;100.00;99461.28;5087409;28;20142;-73
2023/10/23 07:30:37;;;;;;;0.00;0.00;;;;;;;11.66;100.00;99471.50;5090987;28;20127;-74
2023/10/23 07:33:05;;;;;;;0.00;0.00;;;;;;;11.81;100.00;99478.66;5081757;27;20477;-71
2023/10/23 07:36:26;;;;;;;;;;;;;;;;;;;;;
2023/10/23 07:38:59;;;;;;;0.00;0.00;;;;;;;11.94;100.00;99493.56;5080853;28;20035;-73
2023/10/23 07:41:28;;;;;;;0.00;0.00;;;;;;;11.82;100.00;99469.34;5076353;28;20047;-75
2023/10/23 07:43:53;;;;;;;0.00;0.00;;;;;;;11.99;100.00;99488.03;5099958;28;20027;-74
2023/10/23 07:46:21;;;;;;;0.00;0.00;;;;;;;12.05;100.00;99486.84;5093925;28;20028;-75
2023/10/23 07:48:46;;;;;;;0.00;0.00;;;;;;;11.94;100.00;99455.22;5093264;28;20084;-76
2023/10/23 07:51:17;;;;;;;0.00;0.00;;;;;;;12.12;100.00;99473.56;5097785;28;20130;-74
2023/10/23 07:53:42;;;;;;;0.00;0.00;;;;;;;12.32;100.00;99491.56;5091025;28;20038;-74
2023/10/23 07:56:08;;;;;;;0.00;0.00;;;;;;;12.19;99.79;99460.28;5094415;28;20032;-74
2023/10/23 07:58:37;;;;;;;0.00;0.00;;;;;;;12.45;99.46;99491.91;5093795;28;20050;-74
2023/10/23 08:01:12;;;;;;;0.00;0.00;;;;;;;12.49;98.74;99465.53;5094554;28;20092;-75
2023/10/23 08:03:38;;;;;;;0.00;0.00;;;;;;;12.54;98.84;99447.06;5094623;28;20107;-74
2023/10/23 08:06:05;;;;;;;0.00;0.00;;;;;;;13.02;98.23;99473.25;5103438;28;20110;-75
2023/10/23 08:08:35;;;;;;;0.00;0.00;;;;;;;13.35;96.73;99475.91;5087533;28;20051;-72
2023/10/23 08:11:05;;;;;;;0.00;0.00;;;;;;;13.67;95.17;99476.03;5104098;28;20027;-73
2023/10/23 08:13:32;;;;;;;0.00;0.00;;;;;;;14.00;93.70;99478.56;5096942;28;20019;-75
2023/10/23 08:15:57;;;;;;;0.00;0.00;;;;;;;14.33;91.87;99487.38;5096595;28;20031;-75
2023/10/23 08:18:25;;;;;;;0.00;0.00;;;;;;;14.58;90.56;99493.34;5092466;28;20031;-73
2023/10/23 08:20:50;;;;;;;0.00;0.00;;;;;;;14.63;88.95;99461.03;5082957;28;20138;-74
2023/10/23 08:23:16;;;;;;;0.00;0.00;;;;;;;14.91;88.09;99490.28;5061166;28;20107;-74
2023/10/23 08:25:41;;;;;;;0.00;0.00;;;;;;;14.90;86.94;99456.44;5093734;28;21230;-75
2023/10/23 08:28:10;;;;;;;0.00;0.00;;;;;;;15.27;85.84;99497.53;5100984;28;20024;-75
2023/10/23 08:30:36;;;;;;;0.00;0.00;;;;;;;15.43;85.21;99473.91;5083248;28;20084;-74
2023/10/23 08:33:09;;;;;;;0.00;0.00;;;;;;;15.77;83.59;99477.84;5096531;28;20019;-74
2023/10/23 08:35:37;;;;;;;0.00;0.00;;;;;;;16.35;82.13;99469.38;5065972;28;20047;-76
2023/10/23 08:38:03;;;;;;;0.00;0.00;;;;;;;17.02;79.23;99475.34;5080625;28;20031;-74
2023/10/23 08:40:29;;;;;;;0.00;0.00;;;;;;;17.51;76.61;99481.22;5104008;28;20028;-76
2023/10/23 08:42:54;;;;;;;0.00;0.00;;;;;;;17.74;75.17;99472.59;5081073;28;20101;-74
2023/10/23 08:45:20;;;;;;;0.00;0.00;;;;;;;17.95;74.05;99484.50;5101296;28;20050;-74
2023/10/23 08:47:45;;;;;;;0.00;0.00;;;;;;;17.96;73.39;99469.53;5093707;28;20039;-75
2023/10/23 08:50:11;;;;;;;0.00;0.00;;;;;;;18.54;72.53;99477.06;5095877;28;20026;-75
2023/10/23 08:52:46;;;;;;;0.00;0.00;;;;;;;18.99;69.98;99459.63;5095203;28;20429;-74
2023/10/23 08:55:15;;;;;;;0.10;0.10;;;;;;;19.63;68.03;99486.94;5073090;28;20123;-74
2023/10/23 08:57:54;;;;;;;0.00;0.00;;;;;;;19.86;66.55;99476.16;5102571;28;20034;-74
2023/10/23 09:00:23;;;;;;;0.00;0.00;;;;;;;20.09;65.38;99467.28;5063201;28;20030;-75
2023/10/23 09:02:49;;;;;;;0.00;0.00;;;;;;;20.13;64.59;99459.88;5074608;28;20463;-75
2023/10/23 09:05:26;;;;;;;0.00;0.00;;;;;;;20.25;63.86;99472.88;5092282;28;20031;-74
2023/10/23 09:07:52;;;;;;;0.00;0.00;;;;;;;20.51;62.79;99481.50;5076111;28;20028;-74
2023/10/23 09:10:18;;;;;;;0.00;0.00;;;;;;;20.51;62.19;99486.28;5047539;28;20042;-74
2023/10/23 09:12:43;;;;;;;0.00;0.00;;;;;;;20.91;61.07;99482.59;5102337;28;20106;-73
2023/10/23 09:15:26;;;;;;;0.00;0.00;;;;;;;21.24;60.16;99482.16;5078707;28;20042;-75
2023/10/23 09:18:09;;;;;;;0.00;0.00;;;;;;;21.48;58.99;99472.00;5073900;28;20221;-75
2023/10/23 09:20:42;;;;;;;0.00;0.00;;;;;;;21.75;57.66;99475.00;5078561;28;20529;-72
2023/10/23 09:23:15;;;;;;;0.00;0.00;;;;;;;22.25;57.36;99469.63;5084674;28;20441;-73
2023/10/23 09:25:45;;;;;;;0.00;0.00;;;;;;;22.80;55.02;99459.13;5080521;28;20114;-74
2023/10/23 09:28:11;;;;;;;0.00;0.00;;;;;;;22.94;53.28;99475.28;5096953;28;20041;-74
2023/10/23 09:30:37;;;;;;;0.00;0.00;;;;;;;22.80;53.26;99467.47;5100715;28;20099;-76
2023/10/23 09:33:03;;;;;;;0.00;0.00;;;;;;;22.97;53.49;99470.94;5104282;28;20024;-73
2023/10/23 09:35:28;;;;;;;0.00;0.00;;;;;;;23.31;52.75;99462.72;5105252;28;20569;-73
2023/10/23 09:37:56;;;;;;;0.00;0.00;;;;;;;23.16;52.23;99456.94;5097186;28;20039;-74
2023/10/23 09:40:22;;;;;;;0.00;0.00;;;;;;;23.15;52.08;99448.94;5099231;28;20033;-73
2023/10/23 09:42:55;;;;;;;0.00;0.00;;;;;;;23.14;52.53;99437.00;5076732;28;20085;-73
2023/10/23 09:45:38;;;;;;;0.00;0.00;;;;;;;23.38;52.15;99457.25;5102699;28;20024;-73
2023/10/23 09:48:06;;;;;;;0.00;0.00;;;;;;;23.23;51.83;99461.00;5097191;28;20111;-74
2023/10/23 09:50:32;;;;;;;0.00;0.00;;;;;;;23.06;51.89;99446.41;5103991;27;20035;-72
2023/10/23 09:53:00;;;;;;;0.00;0.00;;;;;;;22.88;52.00;99442.50;5097857;28;20484;-73
2023/10/23 09:55:28;;;;;;;0.00;0.00;;;;;;;22.50;52.80;99442.25;5089202;28;20027;-74
2023/10/23 09:58:02;;;;;;;0.00;0.00;;;;;;;22.56;53.52;99438.03;5104600;28;20042;-74
2023/10/23 10:00:33;;;;;;;0.00;0.00;;;;;;;22.76;52.02;99432.38;5080351;28;20019;-74
2023/10/23 10:03:02;;;;;;;0.00;0.00;;;;;;;22.76;52.77;99433.16;5102481;28;20016;-74
2023/10/23 10:05:50;;;;;;;0.00;0.00;;;;;;;23.03;51.80;99447.16;5093905;28;20028;-73
2023/10/23 10:08:18;;;;;;;0.00;0.00;;;;;;;23.44;52.04;99430.63;5095654;28;20051;-73
2023/10/23 10:10:48;;;;;;;0.00;0.00;;;;;;;24.09;50.97;99442.63;5050995;28;20135;-73
2023/10/23 10:13:14;;;;;;;0.00;0.00;;;;;;;24.50;50.18;99431.50;5077098;28;20463;-73
2023/10/23 10:15:41;;;;;;;0.00;0.00;;;;;;;24.68;49.24;99419.72;5078528;28;20031;-73
2023/10/23 10:18:07;;;;;;;0.00;0.00;;;;;;;24.96;48.24;99430.31;5095216;28;20060;-73
2023/10/23 10:20:41;;;;;;;0.00;0.00;;;;;;;24.48;46.84;99421.91;5092281;28;20580;-73
2023/10/23 10:23:08;;;;;;;;;;;;;;;24.37;48.30;99424.56;5088233;28;20039;-73
2023/10/23 10:25:36;;;;;;;0.00;0.00;;;;;;;24.70;47.85;99422.91;5096838;28;19911;-73
2023/10/23 10:28:06;;;;;;;0.00;0.00;;;;;;;24.90;46.41;99413.09;5104664;28;20357;-75
2023/10/23 10:30:50;;;;;;;0.00;0.00;;;;;;;24.85;46.26;99407.88;5080539;28;20166;-74
2023/10/23 10:33:21;;;;;;;0.00;0.00;;;;;;;24.44;46.25;99416.25;5074803;28;20028;-74
2023/10/23 10:35:52;;;;;;;0.00;0.00;;;;;;;23.96;45.81;99403.03;5095511;28;20038;-74
2023/10/23 10:38:25;;;;;;;0.00;0.00;;;;;;;24.16;46.83;99416.78;5087535;28;20141;-72
2023/10/23 10:41:01;;;;;;;0.00;0.00;;;;;;;24.13;46.03;99404.38;5079862;28;20031;-75
2023/10/23 10:43:37;;;;;;;0.00;0.00;;;;;;;23.91;46.25;99399.75;5084863;28;20039;-74
2023/10/23 10:46:15;;;;;;;0.00;0.00;;;;;;;23.97;46.44;99401.03;5086113;28;20174;-72
2023/10/23 10:48:42;;;;;;;0.00;0.00;;;;;;;23.62;47.28;99404.97;5096834;28;20036;-73
2023/10/23 10:51:08;;;;;;;0.00;0.00;;;;;;;22.51;47.52;99388.16;5097924;28;20072;-73
2023/10/23 10:53:37;;;;;;;0.00;0.00;;;;;;;21.72;49.11;99387.50;5087448;28;20565;-74
2023/10/23 10:56:08;;;;;;;0.00;0.00;;;;;;;21.38;50.28;99364.91;5104232;28;20027;-73
2023/10/23 10:58:34;;;;;;;0.00;0.00;;;;;;;21.49;50.92;99379.03;5093913;28;20048;-73
2023/10/23 11:01:01;;;;;;;0.00;0.00;;;;;;;21.29;51.71;99381.00;5093680;28;20020;-73
2023/10/23 11:03:27;;;;;;;0.00;0.00;;;;;;;20.71;52.10;99340.00;5097051;28;20445;-74
2023/10/23 11:05:57;;;;;;;0.00;0.00;;;;;;;20.73;52.76;99382.94;5068097;28;20089;-74
2023/10/23 11:08:23;;;;;;;0.00;0.00;;;;;;;20.28;53.48;99369.44;5065734;28;20036;-72
2023/10/23 11:10:48;;;;;;;0.00;0.00;;;;;;;19.91;53.63;99356.59;5078236;28;20085;-74
2023/10/23 11:13:15;;;;;;;0.00;0.00;;;;;;;19.93;54.17;99368.19;5091937;28;20031;-74
2023/10/23 11:15:45;;;;;;;0.00;0.00;;;;;;;19.63;54.61;99354.63;5077825;28;20027;-74
2023/10/23 11:18:15;;;;;;;0.00;0.00;;;;;;;19.44;55.47;99362.81;5099158;28;20035;-74
2023/10/23 11:20:43;;;;;;;0.00;0.00;;;;;;;19.28;56.67;99352.44;5092276;28;20039;-73
2023/10/23 11:23:13;;;;;;;0.00;0.00;;;;;;;19.59;56.50;99342.63;5092583;28;20035;-74
2023/10/23 11:25:42;;;;;;;0.00;0.00;;;;;;;19.75;56.80;99348.22;5096239;28;20054;-73
2023/10/23 11:28:07;;;;;;;0.00;0.00;;;;;;;19.75;56.61;99350.19;5084184;28;20031;-72
2023/10/23 11:31:14;;;;;;;0.00;0.00;;;;;;;19.73;56.60;99341.41;5073826;28;20135;-73
2023/10/23 11:33:39;;;;;;;0.00;0.00;;;;;;;19.57;57.03;99344.16;5097826;28;20649;-72
2023/10/23 11:36:06;;;;;;;0.00;0.00;;;;;;;19.61;57.15;99329.22;5098225;28;20041;-72
2023/10/23 11:38:36;;;;;;;0.00;0.00;;;;;;;19.64;56.75;99322.97;5104149;28;20468;-74
2023/10/23 11:41:02;;;;;;;0.00;0.00;;;;;;;19.90;56.76;99335.56;5086350;28;20055;-73
2023/10/23 11:43:28;;;;;;;0.00;0.00;;;;;;;19.77;55.73;99320.94;5099547;28;20101;-73